Echo Bay, Nevada
Current Conditions -  °F | °C
As of 1:58 AM on Sunday 26 Oct 2014 (Local Time) from KLSV Reporting Station
Clear Clear  
Wind Chill: 73°   Ceiling: Unl
Heat Index: 73°   Visibility: 10mi
Dew Point: 41°   Wind: 16mph
Humidity: 32%   Direction: 160°SSE
Pressure: 29.9"   Gusts: NA
Location:  36.5809°N, 114.605°W
Report Text: KLSV 260858Z AUTO 16014KT 10SM CLR 23/05 A2990 RMK AO2 SLP103 T02280051 55008 $
Loading
Personal Weather Stations






























Interactive Weather Map
Tropical Storm Tracking
New forecast layout! Learn more

10-Day Weather Forecast

Advertisements
Track Severe Weather on mobile